sensor_id;sensor_type;location;lat;lon;timestamp;pressure;altitude;pressure_sealevel;temperature;humidity
49044;BME280;34860;48.066;14.124;2023-09-18T00:02:28;96428.41;;;19.41;67.28
49044;BME280;34860;48.066;14.124;2023-09-18T00:05:18;96440.19;;;19.39;67.36
49044;BME280;34860;48.066;14.124;2023-09-18T00:08:06;96436.06;;;19.35;67.51
49044;BME280;34860;48.066;14.124;2023-09-18T00:10:54;96432.97;;;19.33;67.50
49044;BME280;34860;48.066;14.124;2023-09-18T00:13:43;96431.16;;;19.30;67.31
49044;BME280;34860;48.066;14.124;2023-09-18T00:16:31;96430.13;;;19.27;67.39
49044;BME280;34860;48.066;14.124;2023-09-18T00:19:25;96430.34;;;19.23;67.51
49044;BME280;34860;48.066;14.124;2023-09-18T00:22:13;96423.66;;;19.21;67.46
49044;BME280;34860;48.066;14.124;2023-09-18T00:25:01;96419.81;;;19.18;67.47
49044;BME280;34860;48.066;14.124;2023-09-18T00:27:49;96421.59;;;19.16;67.51
49044;BME280;34860;48.066;14.124;2023-09-18T00:30:42;96411.31;;;19.13;67.43
49044;BME280;34860;48.066;14.124;2023-09-18T00:33:31;96408.25;;;19.11;67.54
49044;BME280;34860;48.066;14.124;2023-09-18T00:36:20;96396.72;;;19.09;67.48
49044;BME280;34860;48.066;14.124;2023-09-18T00:39:09;96403.59;;;19.08;67.54
49044;BME280;34860;48.066;14.124;2023-09-18T00:41:57;96399.72;;;19.05;67.58
49044;BME280;34860;48.066;14.124;2023-09-18T00:44:45;96397.94;;;19.02;67.58
49044;BME280;34860;48.066;14.124;2023-09-18T00:47:33;96387.69;;;18.99;67.59
49044;BME280;34860;48.066;14.124;2023-09-18T00:50:23;96380.22;;;18.96;67.49
49044;BME280;34860;48.066;14.124;2023-09-18T00:53:15;96375.09;;;18.94;67.56
49044;BME280;34860;48.066;14.124;2023-09-18T00:56:04;96374.31;;;18.94;67.64
49044;BME280;34860;48.066;14.124;2023-09-18T00:58:53;96376.88;;;18.92;67.58
49044;BME280;34860;48.066;14.124;2023-09-18T01:01:42;96386.88;;;18.93;67.56
49044;BME280;34860;48.066;14.124;2023-09-18T01:04:31;96387.63;;;18.93;67.44
49044;BME280;34860;48.066;14.124;2023-09-18T01:07:20;96393.75;;;18.92;67.66
49044;BME280;34860;48.066;14.124;2023-09-18T01:10:10;96379.91;;;18.88;67.63
49044;BME280;34860;48.066;14.124;2023-09-18T01:13:04;96380.91;;;18.85;67.62
49044;BME280;34860;48.066;14.124;2023-09-18T01:16:10;96382.97;;;18.84;67.66
49044;BME280;34860;48.066;14.124;2023-09-18T01:19:02;96379.81;;;18.82;67.53
49044;BME280;34860;48.066;14.124;2023-09-18T01:21:50;96374.44;;;18.79;67.56
49044;BME280;34860;48.066;14.124;2023-09-18T01:24:40;96365.44;;;18.75;67.74
49044;BME280;34860;48.066;14.124;2023-09-18T01:27:28;96363.16;;;18.73;67.67
49044;BME280;34860;48.066;14.124;2023-09-18T01:30:17;96368.22;;;18.69;67.70
49044;BME280;34860;48.066;14.124;2023-09-18T01:33:05;96372.28;;;18.68;67.91
49044;BME280;34860;48.066;14.124;2023-09-18T01:35:55;96362.53;;;18.63;67.85
49044;BME280;34860;48.066;14.124;2023-09-18T01:38:44;96355.88;;;18.61;67.89
49044;BME280;34860;48.066;14.124;2023-09-18T01:41:34;96364.31;;;18.61;67.85
49044;BME280;34860;48.066;14.124;2023-09-18T01:44:22;96354.06;;;18.58;67.95
49044;BME280;34860;48.066;14.124;2023-09-18T01:47:13;96348.91;;;18.56;67.90
49044;BME280;34860;48.066;14.124;2023-09-18T01:50:03;96340.22;;;18.54;67.94
49044;BME280;34860;48.066;14.124;2023-09-18T01:52:53;96342.22;;;18.54;67.86
49044;BME280;34860;48.066;14.124;2023-09-18T01:55:41;96333.53;;;18.51;67.96
49044;BME280;34860;48.066;14.124;2023-09-18T01:58:31;96334.78;;;18.50;67.91
49044;BME280;34860;48.066;14.124;2023-09-18T02:01:19;96341.69;;;18.49;68.00
49044;BME280;34860;48.066;14.124;2023-09-18T02:04:07;96328.91;;;18.48;67.87
49044;BME280;34860;48.066;14.124;2023-09-18T02:06:55;96325.31;;;18.48;67.85
49044;BME280;34860;48.066;14.124;2023-09-18T02:09:43;96320.19;;;18.46;67.88
49044;BME280;34860;48.066;14.124;2023-09-18T02:12:31;96329.41;;;18.47;67.92
49044;BME280;34860;48.066;14.124;2023-09-18T02:15:22;96323.22;;;18.43;67.95
49044;BME280;34860;48.066;14.124;2023-09-18T02:18:10;96322.44;;;18.42;67.99
49044;BME280;34860;48.066;14.124;2023-09-18T02:20:58;96315.28;;;18.41;67.96
49044;BME280;34860;48.066;14.124;2023-09-18T02:23:49;96310.38;;;18.36;67.94
49044;BME280;34860;48.066;14.124;2023-09-18T02:26:37;96309.59;;;18.36;68.03
49044;BME280;34860;48.066;14.124;2023-09-18T02:29:25;96308.53;;;18.33;67.91
49044;BME280;34860;48.066;14.124;2023-09-18T02:32:15;96309.34;;;18.33;68.10
49044;BME280;34860;48.066;14.124;2023-09-18T02:35:05;96303.91;;;18.30;68.22
49044;BME280;34860;48.066;14.124;2023-09-18T02:37:53;96305.69;;;18.27;68.03
49044;BME280;34860;48.066;14.124;2023-09-18T02:40:41;96302.13;;;18.27;68.20
49044;BME280;34860;48.066;14.124;2023-09-18T02:43:29;96302.63;;;18.25;68.19
49044;BME280;34860;48.066;14.124;2023-09-18T02:46:18;96293.88;;;18.23;68.14
49044;BME280;34860;48.066;14.124;2023-09-18T02:49:07;96290.06;;;18.21;67.91
49044;BME280;34860;48.066;14.124;2023-09-18T02:51:55;96292.38;;;18.22;68.15
49044;BME280;34860;48.066;14.124;2023-09-18T02:54:44;96296.16;;;18.19;68.11
49044;BME280;34860;48.066;14.124;2023-09-18T02:57:32;96301.50;;;18.17;68.33
49044;BME280;34860;48.066;14.124;2023-09-18T03:00:20;96294.84;;;18.14;68.11
49044;BME280;34860;48.066;14.124;2023-09-18T03:03:16;96300.19;;;18.12;68.33
49044;BME280;34860;48.066;14.124;2023-09-18T03:06:06;96282.28;;;18.10;68.17
49044;BME280;34860;48.066;14.124;2023-09-18T03:08:54;96273.84;;;18.10;68.22
49044;BME280;34860;48.066;14.124;2023-09-18T03:11:42;96269.97;;;18.07;68.14
49044;BME280;34860;48.066;14.124;2023-09-18T03:14:31;96272.28;;;18.09;68.16
49044;BME280;34860;48.066;14.124;2023-09-18T03:17:19;96281.22;;;18.07;68.36
49044;BME280;34860;48.066;14.124;2023-09-18T03:20:08;96283.00;;;18.05;68.14
49044;BME280;34860;48.066;14.124;2023-09-18T03:23:00;96283.75;;;18.05;68.20
49044;BME280;34860;48.066;14.124;2023-09-18T03:25:48;96285.03;;;18.04;68.17
49044;BME280;34860;48.066;14.124;2023-09-18T03:28:36;96286.31;;;18.03;68.13
49044;BME280;34860;48.066;14.124;2023-09-18T03:31:25;96277.09;;;18.03;68.20
49044;BME280;34860;48.066;14.124;2023-09-18T03:34:13;96271.97;;;18.01;68.38
49044;BME280;34860;48.066;14.124;2023-09-18T03:37:01;96264.31;;;18.02;68.48
49044;BME280;34860;48.066;14.124;2023-09-18T03:39:50;96255.09;;;18.01;68.30
49044;BME280;34860;48.066;14.124;2023-09-18T03:42:39;96248.44;;;17.99;68.39
49044;BME280;34860;48.066;14.124;2023-09-18T03:45:27;96247.63;;;17.98;68.28
49044;BME280;34860;48.066;14.124;2023-09-18T03:48:15;96246.13;;;17.97;68.24
49044;BME280;34860;48.066;14.124;2023-09-18T03:51:04;96238.94;;;17.96;68.50
49044;BME280;34860;48.066;14.124;2023-09-18T03:53:52;96243.81;;;17.95;68.47
49044;BME280;34860;48.066;14.124;2023-09-18T03:56:41;96238.69;;;17.94;68.31
49044;BME280;34860;48.066;14.124;2023-09-18T03:59:30;96241.47;;;17.94;68.32
49044;BME280;34860;48.066;14.124;2023-09-18T04:02:18;96238.69;;;17.94;68.28
49044;BME280;34860;48.066;14.124;2023-09-18T04:05:06;96235.59;;;17.92;68.37
49044;BME280;34860;48.066;14.124;2023-09-18T04:07:56;96236.84;;;17.91;68.38
49044;BME280;34860;48.066;14.124;2023-09-18T04:10:45;96222.53;;;17.89;68.42
49044;BME280;34860;48.066;14.124;2023-09-18T04:13:34;96216.59;;;17.87;68.58
49044;BME280;34860;48.066;14.124;2023-09-18T04:16:24;96221.19;;;17.84;68.48
49044;BME280;34860;48.066;14.124;2023-09-18T04:19:13;96219.13;;;17.85;68.44
49044;BME280;34860;48.066;14.124;2023-09-18T04:22:01;96224.00;;;17.84;68.62
49044;BME280;34860;48.066;14.124;2023-09-18T04:24:49;96221.69;;;17.83;68.20
49044;BME280;34860;48.066;14.124;2023-09-18T04:27:37;96219.38;;;17.81;68.56
49044;BME280;34860;48.066;14.124;2023-09-18T04:30:27;96207.84;;;17.79;68.66
49044;BME280;34860;48.066;14.124;2023-09-18T04:33:16;96210.09;;;17.75;68.52
49044;BME280;34860;48.066;14.124;2023-09-18T04:36:04;96208.56;;;17.74;68.65
49044;BME280;34860;48.066;14.124;2023-09-18T04:38:52;96197.03;;;17.72;68.64
49044;BME280;34860;48.066;14.124;2023-09-18T04:41:41;96191.91;;;17.70;68.72
49044;BME280;34860;48.066;14.124;2023-09-18T04:44:29;96175.56;;;17.69;68.41
49044;BME280;34860;48.066;14.124;2023-09-18T04:47:19;96176.03;;;17.67;68.70
49044;BME280;34860;48.066;14.124;2023-09-18T04:50:08;96182.16;;;17.66;68.72
49044;BME280;34860;48.066;14.124;2023-09-18T04:52:58;96179.09;;;17.64;68.56
49044;BME280;34860;48.066;14.124;2023-09-18T04:55:46;96173.97;;;17.62;68.61
49044;BME280;34860;48.066;14.124;2023-09-18T04:58:36;96165.25;;;17.60;68.84
49044;BME280;34860;48.066;14.124;2023-09-18T05:01:24;96162.66;;;17.56;68.75
49044;BME280;34860;48.066;14.124;2023-09-18T05:04:14;96168.00;;;17.54;68.67
49044;BME280;34860;48.066;14.124;2023-09-18T05:07:03;96168.00;;;17.54;68.87
49044;BME280;34860;48.066;14.124;2023-09-18T05:09:51;96174.34;;;17.49;68.83
49044;BME280;34860;48.066;14.124;2023-09-18T05:12:39;96184.81;;;17.49;68.73
49044;BME280;34860;48.066;14.124;2023-09-18T05:15:27;96180.97;;;17.46;68.97
49044;BME280;34860;48.066;14.124;2023-09-18T05:18:16;96171.47;;;17.43;68.78
49044;BME280;34860;48.066;14.124;2023-09-18T05:21:06;96164.81;;;17.41;68.78
49044;BME280;34860;48.066;14.124;2023-09-18T05:23:56;96158.41;;;17.40;68.83
49044;BME280;34860;48.066;14.124;2023-09-18T05:26:44;96161.44;;;17.37;68.86
49044;BME280;34860;48.066;14.124;2023-09-18T05:29:32;96154.28;;;17.36;68.93
49044;BME280;34860;48.066;14.124;2023-09-18T05:32:20;96147.91;;;17.35;68.95
49044;BME280;34860;48.066;14.124;2023-09-18T05:35:10;96158.88;;;17.33;68.96
49044;BME280;34860;48.066;14.124;2023-09-18T05:38:01;96155.28;;;17.33;69.10
49044;BME280;34860;48.066;14.124;2023-09-18T05:40:49;96155.00;;;17.31;68.85
49044;BME280;34860;48.066;14.124;2023-09-18T05:43:37;96155.78;;;17.31;69.01
49044;BME280;34860;48.066;14.124;2023-09-18T05:46:25;96155.78;;;17.31;68.89
49044;BME280;34860;48.066;14.124;2023-09-18T05:49:13;96165.75;;;17.32;68.81
49044;BME280;34860;48.066;14.124;2023-09-18T05:52:01;96158.88;;;17.33;68.91
49044;BME280;34860;48.066;14.124;2023-09-18T05:54:50;96152.50;;;17.33;69.05
49044;BME280;34860;48.066;14.124;2023-09-18T05:57:38;96169.59;;;17.35;68.84
49044;BME280;34860;48.066;14.124;2023-09-18T06:00:26;96173.44;;;17.37;68.96
49044;BME280;34860;48.066;14.124;2023-09-18T06:03:17;96172.19;;;17.38;68.94
49044;BME280;34860;48.066;14.124;2023-09-18T06:06:07;96174.00;;;17.41;68.87
49044;BME280;34860;48.066;14.124;2023-09-18T06:08:55;96158.72;;;17.42;68.71
49044;BME280;34860;48.066;14.124;2023-09-18T06:11:45;96151.81;;;17.43;68.64
49044;BME280;34860;48.066;14.124;2023-09-18T06:14:33;96143.38;;;17.43;68.62
49044;BME280;34860;48.066;14.124;2023-09-18T06:17:21;96143.38;;;17.43;68.65
49044;BME280;34860;48.066;14.124;2023-09-18T06:20:11;96142.88;;;17.45;68.84
49044;BME280;34860;48.066;14.124;2023-09-18T06:22:59;96140.06;;;17.45;68.80
49044;BME280;34860;48.066;14.124;2023-09-18T06:25:47;96148.00;;;17.47;68.76
49044;BME280;34860;48.066;14.124;2023-09-18T06:28:43;96147.03;;;17.50;68.72
49044;BME280;34860;48.066;14.124;2023-09-18T06:31:31;96151.91;;;17.55;68.63
49044;BME280;34860;48.066;14.124;2023-09-18T06:34:19;96142.22;;;17.56;68.76
49044;BME280;34860;48.066;14.124;2023-09-18T06:37:07;96144.31;;;17.61;68.71
49044;BME280;34860;48.066;14.124;2023-09-18T06:39:57;96135.38;;;17.63;68.65
49044;BME280;34860;48.066;14.124;2023-09-18T06:42:45;96131.59;;;17.66;68.80
49044;BME280;34860;48.066;14.124;2023-09-18T06:45:35;96121.66;;;17.70;68.66
49044;BME280;34860;48.066;14.124;2023-09-18T06:48:24;96132.66;;;17.74;68.69
49044;BME280;34860;48.066;14.124;2023-09-18T06:51:12;96132.47;;;17.77;68.67
49044;BME280;34860;48.066;14.124;2023-09-18T06:54:01;96127.38;;;17.82;68.76
49044;BME280;34860;48.066;14.124;2023-09-18T06:56:50;96140.69;;;17.87;68.70
49044;BME280;34860;48.066;14.124;2023-09-18T06:59:38;96131.78;;;17.88;68.76
49044;BME280;34860;48.066;14.124;2023-09-18T07:02:27;96124.66;;;17.93;68.72
49044;BME280;34860;48.066;14.124;2023-09-18T07:05:15;96136.47;;;17.97;68.77
49044;BME280;34860;48.066;14.124;2023-09-18T07:08:04;96135.72;;;18.02;68.59
49044;BME280;34860;48.066;14.124;2023-09-18T07:10:55;96130.66;;;18.06;68.79
49044;BME280;34860;48.066;14.124;2023-09-18T07:13:44;96120.72;;;18.11;68.81
49044;BME280;34860;48.066;14.124;2023-09-18T07:16:32;96112.81;;;18.15;68.73
49044;BME280;34860;48.066;14.124;2023-09-18T07:19:22;96102.09;;;18.19;68.58
49044;BME280;34860;48.066;14.124;2023-09-18T07:22:10;96102.13;;;18.25;68.73
49044;BME280;34860;48.066;14.124;2023-09-18T07:24:57;96102.16;;;18.30;68.52
49044;BME280;34860;48.066;14.124;2023-09-18T07:27:45;96102.97;;;18.37;68.48
49044;BME280;34860;48.066;14.124;2023-09-18T07:30:33;96106.59;;;18.43;68.52
49044;BME280;34860;48.066;14.124;2023-09-18T07:33:23;96114.53;;;18.50;68.36
49044;BME280;34860;48.066;14.124;2023-09-18T07:36:13;96109.97;;;18.58;68.44
49044;BME280;34860;48.066;14.124;2023-09-18T07:39:02;96110.25;;;18.66;68.43
49044;BME280;34860;48.066;14.124;2023-09-18T07:41:51;96106.97;;;18.73;68.41
49044;BME280;34860;48.066;14.124;2023-09-18T07:44:39;96110.06;;;18.81;68.47
49044;BME280;34860;48.066;14.124;2023-09-18T07:47:27;96112.44;;;18.88;68.48
49044;BME280;34860;48.066;14.124;2023-09-18T07:50:16;96115.53;;;18.96;68.34
49044;BME280;34860;48.066;14.124;2023-09-18T07:53:06;96128.59;;;19.04;68.34
49044;BME280;34860;48.066;14.124;2023-09-18T07:55:58;96133.25;;;19.13;68.20
49044;BME280;34860;48.066;14.124;2023-09-18T07:58:46;96145.56;;;19.21;68.17
49044;BME280;34860;48.066;14.124;2023-09-18T08:01:34;96154.53;;;19.31;68.38
49044;BME280;34860;48.066;14.124;2023-09-18T08:04:22;96148.41;;;19.38;68.22
49044;BME280;34860;48.066;14.124;2023-09-18T08:07:10;96136.38;;;19.44;68.23
49044;BME280;34860;48.066;14.124;2023-09-18T08:10:00;96125.09;;;19.49;68.23
49044;BME280;34860;48.066;14.124;2023-09-18T08:12:48;96137.41;;;19.57;68.24
49044;BME280;34860;48.066;14.124;2023-09-18T08:15:38;96126.66;;;19.62;68.56
49044;BME280;34860;48.066;14.124;2023-09-18T08:18:26;96125.13;;;19.66;68.37
49044;BME280;34860;48.066;14.124;2023-09-18T08:21:15;96123.84;;;19.73;68.25
49044;BME280;34860;48.066;14.124;2023-09-18T08:24:04;96126.72;;;19.78;68.30
49044;BME280;34860;48.066;14.124;2023-09-18T08:26:53;96118.22;;;19.84;68.31
49044;BME280;34860;48.066;14.124;2023-09-18T08:29:42;96127.47;;;19.90;68.25
49044;BME280;34860;48.066;14.124;2023-09-18T08:32:30;96121.84;;;19.96;68.24
49044;BME280;34860;48.066;14.124;2023-09-18T08:35:20;96132.34;;;20.01;68.26
49044;BME280;34860;48.066;14.124;2023-09-18T08:38:09;96125.41;;;20.08;68.17
49044;BME280;34860;48.066;14.124;2023-09-18T08:40:57;96126.16;;;20.14;68.28
49044;BME280;34860;48.066;14.124;2023-09-18T08:43:49;96122.06;;;20.21;68.28
49044;BME280;34860;48.066;14.124;2023-09-18T08:46:38;96125.13;;;20.28;68.08
49044;BME280;34860;48.066;14.124;2023-09-18T08:49:27;96119.97;;;20.38;68.26
49044;BME280;34860;48.066;14.124;2023-09-18T08:52:16;96114.84;;;20.42;68.18
49044;BME280;34860;48.066;14.124;2023-09-18T08:55:06;96108.13;;;20.51;68.13
49044;BME280;34860;48.066;14.124;2023-09-18T08:57:57;96108.34;;;20.59;68.15
49044;BME280;34860;48.066;14.124;2023-09-18T09:00:47;96107.31;;;20.67;68.02
49044;BME280;34860;48.066;14.124;2023-09-18T09:03:36;96110.63;;;20.77;68.12
49044;BME280;34860;48.066;14.124;2023-09-18T09:06:24;96098.78;;;20.84;67.90
49044;BME280;34860;48.066;14.124;2023-09-18T09:09:13;96100.53;;;20.93;67.93
49044;BME280;34860;48.066;14.124;2023-09-18T09:12:01;96092.28;;;21.01;67.88
49044;BME280;34860;48.066;14.124;2023-09-18T09:15:02;96079.13;;;21.09;68.05
49044;BME280;34860;48.066;14.124;2023-09-18T09:18:02;96080.88;;;21.18;67.90
49044;BME280;34860;48.066;14.124;2023-09-18T09:20:54;96063.34;;;21.25;67.97
49044;BME280;34860;48.066;14.124;2023-09-18T09:23:46;96057.16;;;21.32;67.89
49044;BME280;34860;48.066;14.124;2023-09-18T09:26:36;96055.28;;;21.40;67.90
49044;BME280;34860;48.066;14.124;2023-09-18T09:29:24;96051.13;;;21.47;67.80
49044;BME280;34860;48.066;14.124;2023-09-18T09:32:13;96049.81;;;21.54;67.93
49044;BME280;34860;48.066;14.124;2023-09-18T09:35:03;96052.59;;;21.59;67.94
49044;BME280;34860;48.066;14.124;2023-09-18T09:37:56;96048.44;;;21.66;67.61
49044;BME280;34860;48.066;14.124;2023-09-18T09:40:44;96067.66;;;21.73;67.80
49044;BME280;34860;48.066;14.124;2023-09-18T09:43:32;96058.34;;;21.79;67.99
49044;BME280;34860;48.066;14.124;2023-09-18T09:46:21;96066.25;;;21.86;67.76
49044;BME280;34860;48.066;14.124;2023-09-18T09:49:12;96062.09;;;21.92;67.67
49044;BME280;34860;48.066;14.124;2023-09-18T09:52:10;96054.03;;;22.02;67.52
49044;BME280;34860;48.066;14.124;2023-09-18T09:55:18;96042.41;;;22.06;67.53
49044;BME280;34860;48.066;14.124;2023-09-18T09:58:08;96042.59;;;22.13;67.64
49044;BME280;34860;48.066;14.124;2023-09-18T10:00:58;96048.44;;;22.21;67.33
49044;BME280;34860;48.066;14.124;2023-09-18T10:03:52;96039.34;;;22.28;67.15
49044;BME280;34860;48.066;14.124;2023-09-18T10:06:43;96035.41;;;22.37;67.21
49044;BME280;34860;48.066;14.124;2023-09-18T10:09:35;96029.66;;;22.43;67.04
49044;BME280;34860;48.066;14.124;2023-09-18T10:12:23;96030.38;;;22.49;67.20
49044;BME280;34860;48.066;14.124;2023-09-18T10:15:13;96039.03;;;22.57;66.89
49044;BME280;34860;48.066;14.124;2023-09-18T10:18:03;96029.69;;;22.62;66.96
49044;BME280;34860;48.066;14.124;2023-09-18T10:20:55;96042.72;;;22.71;67.02
49044;BME280;34860;48.066;14.124;2023-09-18T10:23:53;96035.69;;;22.77;66.65
49044;BME280;34860;48.066;14.124;2023-09-18T10:26:50;96031.47;;;22.84;66.83
49044;BME280;34860;48.066;14.124;2023-09-18T10:29:40;96040.88;;;22.92;66.67
49044;BME280;34860;48.066;14.124;2023-09-18T10:32:32;96037.22;;;22.97;66.66
49044;BME280;34860;48.066;14.124;2023-09-18T10:35:21;96037.13;;;23.03;66.44
49044;BME280;34860;48.066;14.124;2023-09-18T10:38:10;96045.56;;;23.09;66.47
49044;BME280;34860;48.066;14.124;2023-09-18T10:40:59;96046.25;;;23.15;66.50
49044;BME280;34860;48.066;14.124;2023-09-18T10:43:53;96036.94;;;23.20;66.22
49044;BME280;34860;48.066;14.124;2023-09-18T10:46:43;96043.78;;;23.25;66.25
49044;BME280;34860;48.066;14.124;2023-09-18T10:49:31;96047.09;;;23.29;66.27
49044;BME280;34860;48.066;14.124;2023-09-18T10:52:21;96037.50;;;23.32;66.08
49044;BME280;34860;48.066;14.124;2023-09-18T10:55:11;96039.50;;;23.37;65.85
49044;BME280;34860;48.066;14.124;2023-09-18T10:58:00;96037.88;;;23.42;65.82
49044;BME280;34860;48.066;14.124;2023-09-18T11:00:50;96037.00;;;23.47;65.76
49044;BME280;34860;48.066;14.124;2023-09-18T11:03:39;96043.91;;;23.51;65.64
49044;BME280;34860;48.066;14.124;2023-09-18T11:06:28;96042.06;;;23.54;65.49
49044;BME280;34860;48.066;14.124;2023-09-18T11:09:19;96037.63;;;23.58;65.41
49044;BME280;34860;48.066;14.124;2023-09-18T11:12:09;96040.59;;;23.66;65.62
49044;BME280;34860;48.066;14.124;2023-09-18T11:14:58;96040.25;;;23.70;65.18
49044;BME280;34860;48.066;14.124;2023-09-18T11:17:58;96045.28;;;23.77;64.96
49044;BME280;34860;48.066;14.124;2023-09-18T11:21:06;96047.53;;;23.84;64.40
49044;BME280;34860;48.066;14.124;2023-09-18T11:23:58;96045.38;;;23.90;64.39
49044;BME280;34860;48.066;14.124;2023-09-18T11:26:47;96047.78;;;24.00;64.23
49044;BME280;34860;48.066;14.124;2023-09-18T11:29:36;96063.94;;;24.05;64.12
49044;BME280;34860;48.066;14.124;2023-09-18T11:32:37;96058.59;;;24.15;63.74
49044;BME280;34860;48.066;14.124;2023-09-18T11:35:27;96068.53;;;24.21;63.99
49044;BME280;34860;48.066;14.124;2023-09-18T11:38:15;96062.22;;;24.28;63.89
49044;BME280;34860;48.066;14.124;2023-09-18T11:41:22;96047.38;;;24.36;63.57
49044;BME280;34860;48.066;14.124;2023-09-18T11:44:33;96039.50;;;24.42;63.50
49044;BME280;34860;48.066;14.124;2023-09-18T11:47:28;96037.88;;;24.46;63.44
49044;BME280;34860;48.066;14.124;2023-09-18T11:50:17;96043.22;;;24.50;63.72
49044;BME280;34860;48.066;14.124;2023-09-18T11:53:11;96042.66;;;24.52;63.51
49044;BME280;34860;48.066;14.124;2023-09-18T11:56:02;96041.56;;;24.55;63.52
49044;BME280;34860;48.066;14.124;2023-09-18T11:58:51;96050.56;;;24.59;63.40
49044;BME280;34860;48.066;14.124;2023-09-18T12:01:41;96053.06;;;24.62;63.49
49044;BME280;34860;48.066;14.124;2023-09-18T12:04:33;96059.41;;;24.69;63.26
49044;BME280;34860;48.066;14.124;2023-09-18T12:07:22;96054.69;;;24.71;63.28
49044;BME280;34860;48.066;14.124;2023-09-18T12:10:14;96057.44;;;24.77;63.08
49044;BME280;34860;48.066;14.124;2023-09-18T12:13:05;96055.22;;;24.83;62.55
49044;BME280;34860;48.066;14.124;2023-09-18T12:15:58;96051.50;;;24.88;62.20
49044;BME280;34860;48.066;14.124;2023-09-18T12:18:49;96054.78;;;24.92;62.11
49044;BME280;34860;48.066;14.124;2023-09-18T12:21:40;96050.50;;;24.99;62.02
49044;BME280;34860;48.066;14.124;2023-09-18T12:24:28;96053.75;;;25.03;61.84
49044;BME280;34860;48.066;14.124;2023-09-18T12:27:17;96046.41;;;25.08;62.16
49044;BME280;34860;48.066;14.124;2023-09-18T12:30:06;96054.50;;;25.17;61.93
49044;BME280;34860;48.066;14.124;2023-09-18T12:32:57;96043.56;;;25.21;62.02
49044;BME280;34860;48.066;14.124;2023-09-18T12:35:46;96050.66;;;25.28;61.49
49044;BME280;34860;48.066;14.124;2023-09-18T12:38:34;96043.53;;;25.34;61.66
49044;BME280;34860;48.066;14.124;2023-09-18T12:41:24;96039.22;;;25.41;61.34
49044;BME280;34860;48.066;14.124;2023-09-18T12:44:19;96049.94;;;25.48;61.42
49044;BME280;34860;48.066;14.124;2023-09-18T12:47:07;96056.25;;;25.54;61.48
49044;BME280;34860;48.066;14.124;2023-09-18T12:50:01;96050.41;;;25.60;61.46
49044;BME280;34860;48.066;14.124;2023-09-18T12:52:50;96058.28;;;25.67;61.09
49044;BME280;34860;48.066;14.124;2023-09-18T12:55:39;96042.59;;;25.74;60.98
49044;BME280;34860;48.066;14.124;2023-09-18T12:58:28;96061.03;;;25.81;61.13
49044;BME280;34860;48.066;14.124;2023-09-18T13:01:17;96054.63;;;25.88;60.64
49044;BME280;34860;48.066;14.124;2023-09-18T13:04:05;96071.03;;;25.95;60.49
49044;BME280;34860;48.066;14.124;2023-09-18T13:07:05;96058.94;;;26.02;60.42
49044;BME280;34860;48.066;14.124;2023-09-18T13:10:00;96052.56;;;26.09;60.43
49044;BME280;34860;48.066;14.124;2023-09-18T13:12:50;96063.28;;;26.17;60.15
49044;BME280;34860;48.066;14.124;2023-09-18T13:15:40;96069.56;;;26.23;59.98
49044;BME280;34860;48.066;14.124;2023-09-18T13:18:30;96062.41;;;26.30;59.80
49044;BME280;34860;48.066;14.124;2023-09-18T13:21:18;96071.34;;;26.34;59.83
49044;BME280;34860;48.066;14.124;2023-09-18T13:24:07;96067.38;;;26.37;59.85
49044;BME280;34860;48.066;14.124;2023-09-18T13:26:56;96071.97;;;26.40;59.62
49044;BME280;34860;48.066;14.124;2023-09-18T13:29:45;96081.50;;;26.42;59.77
49044;BME280;34860;48.066;14.124;2023-09-18T13:32:34;96081.69;;;26.44;59.92
49044;BME280;34860;48.066;14.124;2023-09-18T13:35:26;96076.75;;;26.45;59.40
49044;BME280;34860;48.066;14.124;2023-09-18T13:38:14;96100.50;;;26.48;59.65
49044;BME280;34860;48.066;14.124;2023-09-18T13:41:02;96091.97;;;26.48;59.52
49044;BME280;34860;48.066;14.124;2023-09-18T13:43:51;96092.72;;;26.48;59.57
49044;BME280;34860;48.066;14.124;2023-09-18T13:46:42;96104.88;;;26.49;59.56
49044;BME280;34860;48.066;14.124;2023-09-18T13:49:30;96100.50;;;26.48;59.28
49044;BME280;34860;48.066;14.124;2023-09-18T13:52:19;96098.03;;;26.44;59.31
49044;BME280;34860;48.066;14.124;2023-09-18T13:55:08;96099.91;;;26.41;59.27
49044;BME280;34860;48.066;14.124;2023-09-18T13:57:56;96124.38;;;26.37;59.21
49044;BME280;34860;48.066;14.124;2023-09-18T14:00:44;96112.91;;;26.29;58.78
49044;BME280;34860;48.066;14.124;2023-09-18T14:03:32;96117.78;;;26.21;58.84
49044;BME280;34860;48.066;14.124;2023-09-18T14:06:20;96111.81;;;26.11;58.81
49044;BME280;34860;48.066;14.124;2023-09-18T14:09:11;96113.06;;;26.02;58.84
49044;BME280;34860;48.066;14.124;2023-09-18T14:11:59;96119.97;;;25.93;58.96
49044;BME280;34860;48.066;14.124;2023-09-18T14:14:47;96119.72;;;25.84;59.12
49044;BME280;34860;48.066;14.124;2023-09-18T14:17:35;96139.56;;;25.76;59.36
49044;BME280;34860;48.066;14.124;2023-09-18T14:20:24;96137.19;;;25.67;59.20
49044;BME280;34860;48.066;14.124;2023-09-18T14:23:11;96139.94;;;25.59;59.04
49044;BME280;34860;48.066;14.124;2023-09-18T14:26:01;96140.84;;;25.54;59.12
49044;BME280;34860;48.066;14.124;2023-09-18T14:28:49;96138.44;;;25.45;59.21
49044;BME280;34860;48.066;14.124;2023-09-18T14:31:37;96145.78;;;25.40;59.13
49044;BME280;34860;48.066;14.124;2023-09-18T14:34:25;96148.56;;;25.32;58.91
49044;BME280;34860;48.066;14.124;2023-09-18T14:37:13;96145.03;;;25.26;59.43
49044;BME280;34860;48.066;14.124;2023-09-18T14:40:02;96145.16;;;25.20;59.36
49044;BME280;34860;48.066;14.124;2023-09-18T14:42:51;96144.50;;;25.14;59.33
49044;BME280;34860;48.066;14.124;2023-09-18T14:45:41;96158.28;;;25.10;58.96
49044;BME280;34860;48.066;14.124;2023-09-18T14:48:29;96163.34;;;25.04;58.88